Bondurant, Wyoming
Current Conditions -  °F | °C
As of 6:56 AM on Thursday 23 Oct 2014 (Local Time) from KJAC Reporting Station
Scattered Clouds Scattered Clouds  
Wind Chill: 30°   Ceiling: Unl
Heat Index: 30°   Visibility: 10mi
Dew Point: 28°   Wind: 0mph
Humidity: 93%   Direction: NA
Pressure: 30.18"   Gusts: NA
Location:  43.2°N, 110.41°W
Report Text: KJAC 231256Z 00000KT 10SM SCT110 M01/M02 A3018
Loading
Personal Weather Stations






























Interactive Weather Map
Tropical Storm Tracking
New forecast layout! Learn more

10-Day Weather Forecast

Advertisements
Track Severe Weather on mobile